createdAt,value
2022-12-03T00:02:13.592Z,41.93
2022-12-03T00:04:40.454Z,42.70
2022-12-03T00:07:07.091Z,39.13
2022-12-03T00:09:33.758Z,45.83
2022-12-03T00:12:00.494Z,41.17
2022-12-03T00:14:27.254Z,47.57
2022-12-03T00:16:53.903Z,40.40
2022-12-03T00:19:20.666Z,43.30
2022-12-03T00:21:47.366Z,42.50
2022-12-03T00:24:14.015Z,39.33
2022-12-03T00:26:40.769Z,44.47
2022-12-03T00:29:07.472Z,42.80
2022-12-03T00:31:34.215Z,39.07
2022-12-03T00:34:00.907Z,43.17
2022-12-03T00:36:27.553Z,44.93
2022-12-03T00:38:54.227Z,40.73
2022-12-03T00:41:21.120Z,38.47
2022-12-03T00:43:47.766Z,41.10
2022-12-03T00:46:19.648Z,42.37
2022-12-03T00:48:47.857Z,44.73
2022-12-03T00:51:14.496Z,40.93
2022-12-03T00:53:41.136Z,39.60
2022-12-03T00:56:08.296Z,37.20
2022-12-03T00:58:35.138Z,40.30
2022-12-03T01:01:02.153Z,37.17
2022-12-03T01:03:28.855Z,38.17
2022-12-03T01:05:55.557Z,40.70
2022-12-03T01:08:22.203Z,34.67
2022-12-03T01:10:48.877Z,44.30
2022-12-03T01:13:15.546Z,37.73
2022-12-03T01:15:42.257Z,37.60
2022-12-03T01:18:09.040Z,50.50
2022-12-03T01:20:36.461Z,35.60
2022-12-03T01:23:03.169Z,37.50
2022-12-03T01:25:29.919Z,33.77
2022-12-03T01:27:56.581Z,36.10
2022-12-03T01:30:23.295Z,37.73
2022-12-03T01:32:50.019Z,37.57
2022-12-03T01:35:16.908Z,35.23
2022-12-03T01:37:43.583Z,31.33
2022-12-03T01:40:15.257Z,33.47
2022-12-03T01:42:42.612Z,40.07
2022-12-03T01:45:21.615Z,40.00
2022-12-03T01:47:48.451Z,36.23
2022-12-03T01:50:22.949Z,31.13
2022-12-03T01:52:49.809Z,36.63
2022-12-03T01:55:20.324Z,35.90
2022-12-03T01:57:55.731Z,32.83
2022-12-03T02:00:26.909Z,33.77
2022-12-03T02:02:57.605Z,37.33
2022-12-03T02:05:27.268Z,36.83
2022-12-03T02:07:54.867Z,33.40
2022-12-03T02:10:29.457Z,38.83
2022-12-03T02:13:07.544Z,37.70
2022-12-03T02:15:35.201Z,38.70
2022-12-03T02:18:02.289Z,39.03
2022-12-03T02:20:32.995Z,38.77
2022-12-03T02:23:17.605Z,37.20
2022-12-03T02:25:44.445Z,37.13
2022-12-03T02:28:11.354Z,37.80
2022-12-03T02:30:38.221Z,31.73
2022-12-03T02:33:05.141Z,31.40
2022-12-03T02:35:37.161Z,34.47
2022-12-03T02:38:21.337Z,29.07
2022-12-03T02:40:52.122Z,31.53
2022-12-03T02:43:20.313Z,34.30
2022-12-03T02:45:52.500Z,29.27
2022-12-03T02:48:38.528Z,31.70
2022-12-03T02:51:08.742Z,33.63
2022-12-03T02:53:44.411Z,31.93
2022-12-03T02:56:14.977Z,32.20
2022-12-03T02:58:43.584Z,31.27
2022-12-03T03:01:11.086Z,32.63
2022-12-03T03:03:38.831Z,32.87
2022-12-03T03:06:07.561Z,30.57
2022-12-03T03:08:35.158Z,29.37
2022-12-03T03:11:02.772Z,34.60
2022-12-03T03:13:31.035Z,32.87
2022-12-03T03:15:58.444Z,29.97
2022-12-03T03:18:25.623Z,34.77
2022-12-03T03:20:52.980Z,31.87
2022-12-03T03:23:22.241Z,30.27
2022-12-03T03:26:01.869Z,31.67
2022-12-03T03:28:30.205Z,31.60
2022-12-03T03:30:59.942Z,32.20
2022-12-03T03:33:26.933Z,30.80
2022-12-03T03:35:53.884Z,38.70
2022-12-03T03:38:22.540Z,33.93
2022-12-03T03:40:51.260Z,32.10
2022-12-03T03:43:18.518Z,29.77
2022-12-03T03:45:45.600Z,30.73
2022-12-03T03:48:13.781Z,32.97
2022-12-03T03:50:42.072Z,31.30
2022-12-03T03:53:09.484Z,28.17
2022-12-03T03:55:36.309Z,31.80
2022-12-03T03:58:03.128Z,29.43
2022-12-03T04:00:31.388Z,30.00
2022-12-03T04:02:58.071Z,29.27
2022-12-03T04:05:25.086Z,26.13
2022-12-03T04:07:52.274Z,26.90
2022-12-03T04:10:37.994Z,27.87
2022-12-03T04:13:05.157Z,29.83
2022-12-03T04:15:31.966Z,28.20
2022-12-03T04:18:17.383Z,30.40
2022-12-03T04:20:44.071Z,31.70
2022-12-03T04:23:10.823Z,32.17
2022-12-03T04:25:56.198Z,28.37
2022-12-03T04:28:41.806Z,24.50
2022-12-03T04:31:27.208Z,27.00
2022-12-03T04:34:12.638Z,28.20
2022-12-03T04:36:39.346Z,24.30
2022-12-03T04:39:06.044Z,27.90
2022-12-03T04:41:32.735Z,32.10
2022-12-03T04:44:17.959Z,27.43
2022-12-03T04:46:44.661Z,28.70
2022-12-03T04:49:11.386Z,33.70
2022-12-03T04:51:38.193Z,30.10
2022-12-03T04:54:05.751Z,32.87
2022-12-03T04:56:32.496Z,35.97
2022-12-03T04:58:59.137Z,34.23
2022-12-03T05:01:25.887Z,38.43
2022-12-03T05:03:52.599Z,35.10
2022-12-03T05:06:19.277Z,32.90
2022-12-03T05:08:45.952Z,31.27
2022-12-03T05:11:12.660Z,29.60
2022-12-03T05:13:39.309Z,33.13
2022-12-03T05:16:06.286Z,32.50
2022-12-03T05:18:32.997Z,33.60
2022-12-03T05:20:59.865Z,31.83
2022-12-03T05:23:26.547Z,34.30
2022-12-03T05:25:53.328Z,30.77
2022-12-03T05:28:22.165Z,35.20
2022-12-03T05:30:49.059Z,34.47
2022-12-03T05:33:15.957Z,32.07
2022-12-03T05:35:42.683Z,34.03
2022-12-03T05:38:09.551Z,30.07
2022-12-03T05:40:36.239Z,34.60
2022-12-03T05:43:02.917Z,29.00
2022-12-03T05:45:32.385Z,33.07
2022-12-03T05:48:00.025Z,32.63
2022-12-03T05:50:30.217Z,31.70
2022-12-03T05:52:57.834Z,30.57
2022-12-03T05:55:25.394Z,32.77
2022-12-03T05:57:52.300Z,32.40
2022-12-03T06:00:22.123Z,29.73
2022-12-03T06:02:49.294Z,31.60
2022-12-03T06:05:19.432Z,33.77
2022-12-03T06:07:47.023Z,36.53
2022-12-03T06:10:16.526Z,30.37
2022-12-03T06:12:43.427Z,31.97
2022-12-03T06:15:11.176Z,30.70
2022-12-03T06:17:37.964Z,31.33
2022-12-03T06:20:05.555Z,32.23
2022-12-03T06:22:32.491Z,34.90
2022-12-03T06:25:04.892Z,33.37
2022-12-03T06:27:33.536Z,34.50
2022-12-03T06:30:00.204Z,39.00
2022-12-03T06:32:26.894Z,32.47
2022-12-03T06:34:53.790Z,34.60
2022-12-03T06:37:20.858Z,37.40
2022-12-03T06:39:47.515Z,44.63
2022-12-03T06:42:14.208Z,39.00
2022-12-03T06:44:41.227Z,38.13
2022-12-03T06:47:07.875Z,33.33
2022-12-03T06:49:34.719Z,36.47
2022-12-03T06:52:01.379Z,36.87
2022-12-03T06:54:28.075Z,33.17
2022-12-03T06:56:54.749Z,34.47
2022-12-03T06:59:21.615Z,45.77
2022-12-03T07:01:48.350Z,39.17
2022-12-03T07:04:15.073Z,39.47
2022-12-03T07:06:56.775Z,43.27
2022-12-03T07:09:23.574Z,42.27
2022-12-03T07:11:50.216Z,34.37
2022-12-03T07:14:16.862Z,38.37
2022-12-03T07:16:43.990Z,33.20
2022-12-03T07:19:10.840Z,36.77
2022-12-03T07:21:38.135Z,34.20
2022-12-03T07:24:05.555Z,35.57
2022-12-03T07:26:32.744Z,36.30
2022-12-03T07:28:59.485Z,32.53
2022-12-03T07:31:26.286Z,31.30
2022-12-03T07:33:53.042Z,32.93
2022-12-03T07:36:19.775Z,33.60
2022-12-03T07:38:46.447Z,28.60
2022-12-03T07:41:13.327Z,48.10
2022-12-03T07:43:40.022Z,48.73
2022-12-03T07:46:06.765Z,42.93
2022-12-03T07:48:33.493Z,34.40
2022-12-03T07:51:00.170Z,46.67
2022-12-03T07:53:26.811Z,51.73
2022-12-03T07:55:53.491Z,59.77
2022-12-03T07:58:20.143Z,51.07
2022-12-03T08:00:46.846Z,47.43
2022-12-03T08:03:13.608Z,43.40
2022-12-03T08:05:40.367Z,39.13
2022-12-03T08:08:07.074Z,41.03
2022-12-03T08:10:33.884Z,36.83
2022-12-03T08:13:00.698Z,34.57
2022-12-03T08:15:33.636Z,39.70
2022-12-03T08:18:12.045Z,37.90
2022-12-03T08:20:42.173Z,35.30
2022-12-03T08:23:21.139Z,40.67
2022-12-03T08:25:48.939Z,45.97
2022-12-03T08:28:26.645Z,33.07
2022-12-03T08:31:08.504Z,36.57
2022-12-03T08:33:36.857Z,38.77
2022-12-03T08:36:11.466Z,30.13
2022-12-03T08:38:38.215Z,34.90
2022-12-03T08:41:14.310Z,39.67
2022-12-03T08:43:42.924Z,37.50
2022-12-03T08:46:19.438Z,35.13
2022-12-03T08:48:49.093Z,37.70
2022-12-03T08:51:25.478Z,40.77
2022-12-03T08:54:01.728Z,40.43
2022-12-03T08:56:32.017Z,39.50
2022-12-03T08:59:02.894Z,37.30
2022-12-03T09:01:31.308Z,39.30
2022-12-03T09:04:14.787Z,38.90
2022-12-03T09:06:41.559Z,39.23
2022-12-03T09:09:08.208Z,34.27
2022-12-03T09:11:34.930Z,35.67
2022-12-03T09:14:01.753Z,37.37
2022-12-03T09:16:28.506Z,40.90
2022-12-03T09:18:55.192Z,39.77
2022-12-03T09:21:21.847Z,36.37
2022-12-03T09:23:48.934Z,35.97
2022-12-03T09:26:15.635Z,36.20
2022-12-03T09:28:42.287Z,34.43
2022-12-03T09:31:08.931Z,40.57
2022-12-03T09:33:35.653Z,36.80
2022-12-03T09:36:02.314Z,39.50
2022-12-03T09:38:28.967Z,38.20
2022-12-03T09:40:55.629Z,36.40
2022-12-03T09:43:22.414Z,37.70
2022-12-03T09:45:49.850Z,37.07
2022-12-03T09:48:21.959Z,39.90
2022-12-03T09:50:49.623Z,35.90
2022-12-03T09:53:20.794Z,34.17
2022-12-03T09:55:48.703Z,33.37
2022-12-03T09:58:21.088Z,35.03
2022-12-03T10:00:50.316Z,36.73
2022-12-03T10:03:26.544Z,34.33
2022-12-03T10:05:56.504Z,36.37
2022-12-03T10:08:26.094Z,39.20
2022-12-03T10:10:57.010Z,35.93
2022-12-03T10:13:27.869Z,37.50
2022-12-03T10:15:57.536Z,37.07
2022-12-03T10:18:41.310Z,33.73
2022-12-03T10:21:18.030Z,40.50
2022-12-03T10:23:49.512Z,36.33
2022-12-03T10:26:18.886Z,39.50
2022-12-03T10:28:47.550Z,43.60
2022-12-03T10:31:15.061Z,44.27
2022-12-03T10:33:45.096Z,43.30
2022-12-03T10:36:19.528Z,39.73
2022-12-03T10:38:47.413Z,42.77
2022-12-03T10:41:26.252Z,45.03
2022-12-03T10:43:52.994Z,46.83
2022-12-03T10:46:21.619Z,36.83
2022-12-03T10:49:08.321Z,38.27
2022-12-03T10:51:35.654Z,41.83
2022-12-03T10:54:03.445Z,41.20
2022-12-03T10:56:30.611Z,37.90
2022-12-03T10:58:57.865Z,37.30
2022-12-03T11:01:26.391Z,42.27
2022-12-03T11:03:55.937Z,42.73
2022-12-03T11:06:23.344Z,38.47
2022-12-03T11:08:57.077Z,40.97
2022-12-03T11:11:26.459Z,39.03
2022-12-03T11:14:03.906Z,42.20
2022-12-03T11:16:39.688Z,40.53
2022-12-03T11:19:45.554Z,38.20
2022-12-03T11:22:12.171Z,43.20
2022-12-03T11:24:40.186Z,48.90
2022-12-03T11:27:15.000Z,42.90
2022-12-03T11:29:46.498Z,46.00
2022-12-03T11:32:38.320Z,40.27
2022-12-03T11:35:12.571Z,45.00
2022-12-03T11:37:39.249Z,42.13
2022-12-03T11:40:18.280Z,37.27
2022-12-03T11:42:47.288Z,37.50
2022-12-03T11:45:28.646Z,40.67
2022-12-03T11:47:58.434Z,41.87
2022-12-03T11:50:39.676Z,38.87
2022-12-03T11:53:21.044Z,43.20
2022-12-03T11:56:08.373Z,41.07
2022-12-03T11:58:38.251Z,44.37
2022-12-03T12:01:07.333Z,42.40
2022-12-03T12:03:44.161Z,45.50
2022-12-03T12:06:10.900Z,36.63
2022-12-03T12:08:55.047Z,45.33
2022-12-03T12:11:31.611Z,37.87
2022-12-03T12:14:19.789Z,36.63
2022-12-03T12:16:50.996Z,41.37
2022-12-03T12:19:31.114Z,42.07
2022-12-03T12:22:16.554Z,39.30
2022-12-03T12:24:45.821Z,44.60
2022-12-03T12:27:20.664Z,35.67
2022-12-03T12:29:56.560Z,41.43
2022-12-03T12:32:32.464Z,38.00
2022-12-03T12:35:15.432Z,39.17
2022-12-03T12:37:58.103Z,40.63
2022-12-03T12:40:29.000Z,39.73
2022-12-03T12:42:58.354Z,39.20
2022-12-03T12:45:28.114Z,42.33
2022-12-03T12:48:09.549Z,35.30
2022-12-03T12:50:40.951Z,40.63
2022-12-03T12:53:31.173Z,43.23
2022-12-03T12:56:15.830Z,38.90
2022-12-03T12:58:42.819Z,50.23
2022-12-03T13:01:19.145Z,51.40
2022-12-03T13:03:49.460Z,41.47
2022-12-03T13:06:16.925Z,40.73
2022-12-03T13:08:46.308Z,45.70
2022-12-03T13:11:25.066Z,38.63
2022-12-03T13:13:52.459Z,40.30
2022-12-03T13:16:28.184Z,38.90
2022-12-03T13:18:59.244Z,36.23
2022-12-03T13:21:38.076Z,36.63
2022-12-03T13:24:30.730Z,38.53
2022-12-03T13:26:58.061Z,36.50
2022-12-03T13:29:27.366Z,34.60
2022-12-03T13:32:02.726Z,40.57
2022-12-03T13:34:33.734Z,36.37
2022-12-03T13:37:01.773Z,39.00
2022-12-03T13:39:34.447Z,37.73
2022-12-03T13:42:39.042Z,45.53
2022-12-03T13:45:35.361Z,35.00
2022-12-03T13:48:13.513Z,35.47
2022-12-03T13:50:44.441Z,36.53
2022-12-03T13:53:33.708Z,35.97
2022-12-03T13:56:15.799Z,33.93
2022-12-03T13:58:42.459Z,32.43
2022-12-03T14:01:09.217Z,32.23
2022-12-03T14:03:35.905Z,36.00
2022-12-03T14:06:02.579Z,36.57
2022-12-03T14:08:29.237Z,34.27
2022-12-03T14:11:00.378Z,33.00
2022-12-03T14:13:27.933Z,44.40
2022-12-03T14:15:54.632Z,34.60
2022-12-03T14:18:21.476Z,44.97
2022-12-03T14:20:48.370Z,35.83
2022-12-03T14:23:15.325Z,40.07
2022-12-03T14:25:43.936Z,38.50
2022-12-03T14:28:10.952Z,39.77
2022-12-03T14:30:37.675Z,37.50
2022-12-03T14:33:04.335Z,40.77
2022-12-03T14:35:30.998Z,34.10
2022-12-03T14:37:57.672Z,37.47
2022-12-03T14:40:24.391Z,40.20
2022-12-03T14:42:51.112Z,37.27
2022-12-03T14:45:17.795Z,37.00
2022-12-03T14:47:44.540Z,31.80
2022-12-03T14:50:14.365Z,34.70
2022-12-03T14:52:41.399Z,32.37
2022-12-03T14:55:08.680Z,32.77
2022-12-03T15:01:22.757Z,34.37
2022-12-03T15:03:49.476Z,27.53
2022-12-03T15:06:16.216Z,33.97
2022-12-03T15:08:42.870Z,33.20
2022-12-03T15:11:09.509Z,27.30
2022-12-03T15:13:36.352Z,34.27
2022-12-03T15:16:03.290Z,28.50
2022-12-03T15:18:31.055Z,24.93
2022-12-03T15:20:57.901Z,27.20
2022-12-03T15:23:24.536Z,24.97
2022-12-03T15:25:51.381Z,27.20
2022-12-03T15:28:18.436Z,28.40
2022-12-03T15:31:35.176Z,22.90
2022-12-03T15:34:01.859Z,22.37
2022-12-03T15:36:28.502Z,24.27
2022-12-03T15:38:55.167Z,30.57
2022-12-03T15:41:23.978Z,31.63
2022-12-03T15:43:52.634Z,26.83
2022-12-03T15:46:19.921Z,32.60
2022-12-03T15:48:47.123Z,25.47
2022-12-03T15:51:13.845Z,22.97
2022-12-03T15:53:40.512Z,24.80
2022-12-03T15:56:07.706Z,24.90
2022-12-03T15:58:34.694Z,22.50
2022-12-03T16:01:01.497Z,24.47
2022-12-03T16:03:28.249Z,28.23
2022-12-03T16:05:55.176Z,26.93
2022-12-03T16:08:22.127Z,31.60
2022-12-03T16:10:48.857Z,24.70
2022-12-03T16:13:15.643Z,27.23
2022-12-03T16:15:42.311Z,28.53
2022-12-03T16:18:09.221Z,29.63
2022-12-03T16:20:35.902Z,23.47
2022-12-03T16:23:02.644Z,24.37
2022-12-03T16:25:29.398Z,25.83
2022-12-03T16:27:56.548Z,23.03
2022-12-03T16:30:24.623Z,22.83
2022-12-03T16:32:51.492Z,22.37
2022-12-03T16:35:18.289Z,24.43
2022-12-03T16:37:45.144Z,20.10
2022-12-03T16:40:12.272Z,21.33
2022-12-03T16:42:39.597Z,18.50
2022-12-03T16:45:09.912Z,21.20
2022-12-03T16:47:36.747Z,21.63
2022-12-03T16:50:07.563Z,25.20
2022-12-03T16:52:34.920Z,23.57
2022-12-03T16:55:01.683Z,21.70
2022-12-03T16:57:33.371Z,22.50
2022-12-03T17:00:01.007Z,19.90
2022-12-03T17:02:27.966Z,21.87
2022-12-03T17:04:55.038Z,23.90
2022-12-03T17:07:21.757Z,20.57
2022-12-03T17:09:49.044Z,21.87
2022-12-03T17:12:15.731Z,23.07
2022-12-03T17:14:42.402Z,19.40
2022-12-03T17:17:09.122Z,19.90
2022-12-03T17:19:35.825Z,21.53
2022-12-03T17:22:02.469Z,21.73
2022-12-03T17:24:29.165Z,18.57
2022-12-03T17:26:55.882Z,20.90
2022-12-03T17:29:22.555Z,16.47
2022-12-03T17:31:49.296Z,15.97
2022-12-03T17:34:16.074Z,15.90
2022-12-03T17:36:42.773Z,16.13
2022-12-03T17:39:09.476Z,16.90
2022-12-03T17:41:36.138Z,17.50
2022-12-03T17:44:09.714Z,14.73
2022-12-03T17:46:37.704Z,20.17
2022-12-03T17:49:04.555Z,18.50
2022-12-03T17:51:31.216Z,17.33
2022-12-03T17:53:57.961Z,16.87
2022-12-03T17:56:24.781Z,23.50
2022-12-03T17:58:51.541Z,16.60
2022-12-03T18:01:18.337Z,19.37
2022-12-03T18:03:45.126Z,19.03
2022-12-03T18:06:11.895Z,14.57
2022-12-03T18:08:38.602Z,15.40
2022-12-03T18:11:05.485Z,13.53
2022-12-03T18:13:32.142Z,13.77
2022-12-03T18:15:58.891Z,13.03
2022-12-03T18:18:25.605Z,14.33
2022-12-03T18:20:53.507Z,13.83
2022-12-03T18:23:20.617Z,15.07
2022-12-03T18:25:47.294Z,14.40
2022-12-03T18:28:13.971Z,13.60
2022-12-03T18:30:40.661Z,11.87
2022-12-03T18:33:07.378Z,15.03
2022-12-03T18:35:34.147Z,12.37
2022-12-03T18:38:00.870Z,14.80
2022-12-03T18:40:27.742Z,13.60
2022-12-03T18:42:56.111Z,14.43
2022-12-03T18:45:22.790Z,15.10
2022-12-03T18:47:49.610Z,12.20
2022-12-03T18:50:16.490Z,13.43
2022-12-03T18:52:43.296Z,15.03
2022-12-03T18:55:17.673Z,12.33
2022-12-03T18:57:44.541Z,12.50
2022-12-03T19:00:13.818Z,12.53
2022-12-03T19:05:27.797Z,12.77
2022-12-03T19:07:56.439Z,14.83
2022-12-03T19:10:24.207Z,14.83
2022-12-03T19:12:50.998Z,17.17
2022-12-03T19:15:17.998Z,19.87
2022-12-03T19:17:49.329Z,17.87
2022-12-03T19:20:16.279Z,14.27
2022-12-03T19:22:43.006Z,18.27
2022-12-03T19:25:09.792Z,14.70
2022-12-03T19:27:36.525Z,16.73
2022-12-03T19:30:03.814Z,15.37
2022-12-03T19:32:30.592Z,11.87
2022-12-03T19:34:57.347Z,16.13
2022-12-03T19:37:24.059Z,11.40
2022-12-03T19:39:53.582Z,13.40
2022-12-03T19:42:20.609Z,14.90
2022-12-03T19:44:47.274Z,11.30
2022-12-03T19:47:13.949Z,15.23
2022-12-03T19:49:40.629Z,12.37
2022-12-03T19:52:07.382Z,12.47
2022-12-03T19:54:34.198Z,14.70
2022-12-03T19:57:00.888Z,15.57
2022-12-03T19:59:27.564Z,13.20
2022-12-03T20:01:54.339Z,15.00
2022-12-03T20:04:21.265Z,12.90
2022-12-03T20:06:48.309Z,14.97
2022-12-03T20:09:17.730Z,14.20
2022-12-03T20:11:45.876Z,15.30
2022-12-03T20:14:15.216Z,13.90
2022-12-03T20:16:42.536Z,14.13
2022-12-03T20:19:11.889Z,13.60
2022-12-03T20:21:39.826Z,13.97
2022-12-03T20:24:08.323Z,15.67
2022-12-03T20:26:35.167Z,11.07
2022-12-03T20:29:01.922Z,11.10
2022-12-03T20:31:30.590Z,14.20
2022-12-03T20:33:59.688Z,12.00
2022-12-03T20:36:27.681Z,13.80
2022-12-03T20:38:56.025Z,11.43
2022-12-03T20:41:22.875Z,13.30
2022-12-03T20:43:51.631Z,13.83
2022-12-03T20:46:19.871Z,12.90
2022-12-03T20:48:47.055Z,21.23
2022-12-03T20:51:19.390Z,13.50
2022-12-03T20:53:46.463Z,12.70
2022-12-03T20:56:26.018Z,12.13
2022-12-03T20:58:53.527Z,12.13
2022-12-03T21:01:23.255Z,14.07
2022-12-03T21:03:51.344Z,14.30
2022-12-03T21:06:18.653Z,12.33
2022-12-03T21:08:45.523Z,11.90
2022-12-03T21:11:15.515Z,12.93
2022-12-03T21:13:43.805Z,12.27
2022-12-03T21:16:17.824Z,11.40
2022-12-03T21:18:45.624Z,15.80
2022-12-03T21:21:14.923Z,14.57
2022-12-03T21:23:42.592Z,13.70
2022-12-03T21:26:17.912Z,15.90
2022-12-03T21:28:46.431Z,13.90
2022-12-03T21:31:19.237Z,19.90
2022-12-03T21:33:46.544Z,13.37
2022-12-03T21:36:15.904Z,13.67
2022-12-03T21:38:44.027Z,17.60
2022-12-03T21:41:11.755Z,13.77
2022-12-03T21:43:38.439Z,14.80
2022-12-03T21:47:09.357Z,15.83
2022-12-03T21:48:53.317Z,14.60
2022-12-03T21:51:20.078Z,17.70
2022-12-03T21:53:47.153Z,14.53
2022-12-03T21:56:16.574Z,16.03
2022-12-03T21:58:44.056Z,16.10
2022-12-03T22:01:19.948Z,14.90
2022-12-03T22:03:47.215Z,15.63
2022-12-03T22:06:14.990Z,15.30
2022-12-03T22:08:42.052Z,17.07
2022-12-03T22:11:10.905Z,14.20
2022-12-03T22:13:38.917Z,16.20
2022-12-03T22:16:11.259Z,13.67
2022-12-03T22:18:38.545Z,13.30
2022-12-03T22:21:11.193Z,13.97
2022-12-03T22:23:38.470Z,17.27
2022-12-03T22:26:08.203Z,14.83
2022-12-03T22:28:35.169Z,13.20
2022-12-03T22:31:09.542Z,12.83
2022-12-03T22:33:36.811Z,13.97
2022-12-03T22:36:06.810Z,14.80
2022-12-03T22:38:34.228Z,12.23
2022-12-03T22:41:08.168Z,15.23
2022-12-03T22:43:38.277Z,16.23
2022-12-03T22:46:06.643Z,15.10
2022-12-03T22:48:34.357Z,13.00
2022-12-03T22:51:01.200Z,18.47
2022-12-03T22:53:27.932Z,16.43
2022-12-03T22:55:56.677Z,15.70
2022-12-03T22:58:23.829Z,16.03
2022-12-03T23:00:51.196Z,13.27
2022-12-03T23:03:18.582Z,17.50
2022-12-03T23:05:45.565Z,16.00
2022-12-03T23:08:15.323Z,13.33
2022-12-03T23:10:44.427Z,15.07
2022-12-03T23:13:12.132Z,13.73
2022-12-03T23:15:47.806Z,16.17
2022-12-03T23:18:14.621Z,14.90
2022-12-03T23:20:47.130Z,16.33
2022-12-03T23:23:14.684Z,15.60
2022-12-03T23:25:41.777Z,14.77
2022-12-03T23:28:09.314Z,14.30
2022-12-03T23:30:37.677Z,18.93
2022-12-03T23:33:05.905Z,15.50
2022-12-03T23:35:33.238Z,15.30
2022-12-03T23:37:59.958Z,15.40
2022-12-03T23:40:26.631Z,13.50
2022-12-03T23:42:53.413Z,16.80
2022-12-03T23:45:20.124Z,15.60
2022-12-03T23:47:46.831Z,18.07
2022-12-03T23:50:13.568Z,15.87
2022-12-03T23:52:40.396Z,15.17
2022-12-03T23:55:07.442Z,15.23
2022-12-03T23:57:34.631Z,14.17
